createdAt,value
2018-08-12T00:00:29.963Z,19.15
2018-08-12T00:02:59.832Z,19.09
2018-08-12T00:05:28.706Z,19.08
2018-08-12T00:07:57.572Z,19.11
2018-08-12T00:10:26.662Z,19.07
2018-08-12T00:12:55.479Z,18.94
2018-08-12T00:15:24.696Z,18.80
2018-08-12T00:17:53.519Z,18.74
2018-08-12T00:20:23.479Z,18.70
2018-08-12T00:22:52.333Z,18.63
2018-08-12T00:25:22.964Z,18.63
2018-08-12T00:27:51.773Z,18.64
2018-08-12T00:30:20.866Z,18.58
2018-08-12T00:32:49.719Z,18.59
2018-08-12T00:35:19.458Z,18.56
2018-08-12T00:37:48.371Z,18.58
2018-08-12T00:40:17.879Z,18.57
2018-08-12T00:42:47.174Z,18.47
2018-08-12T00:45:17.879Z,18.43
2018-08-12T00:47:46.909Z,18.37
2018-08-12T00:50:16.598Z,18.29
2018-08-12T00:52:45.475Z,18.30
2018-08-12T00:55:15.689Z,18.23
2018-08-12T00:57:45.734Z,18.14
2018-08-12T01:00:16.624Z,18.13
2018-08-12T01:02:45.427Z,18.14
2018-08-12T01:05:15.966Z,18.13
2018-08-12T01:07:45.545Z,18.19
2018-08-12T01:10:15.114Z,18.23
2018-08-12T01:12:43.997Z,18.25
2018-08-12T01:15:16.784Z,18.15
2018-08-12T01:17:45.974Z,18.22
2018-08-12T01:20:18.790Z,18.27
2018-08-12T01:22:47.623Z,18.25
2018-08-12T01:25:16.820Z,18.17
2018-08-12T01:27:45.613Z,18.09
2018-08-12T01:30:17.449Z,18.05
2018-08-12T01:32:46.988Z,18.02
2018-08-12T01:35:16.244Z,17.98
2018-08-12T01:37:45.838Z,17.89
2018-08-12T01:40:15.821Z,17.83
2018-08-12T01:42:45.133Z,17.81
2018-08-12T01:45:15.889Z,17.87
2018-08-12T01:47:44.686Z,17.76
2018-08-12T01:50:14.941Z,17.62
2018-08-12T01:52:43.935Z,17.50
2018-08-12T01:55:12.711Z,17.51
2018-08-12T01:57:41.980Z,17.54
2018-08-12T02:00:16.338Z,17.47
2018-08-12T02:02:45.700Z,17.50
2018-08-12T02:05:14.618Z,17.40
2018-08-12T02:07:43.943Z,17.29
2018-08-12T02:10:12.839Z,17.26
2018-08-12T02:12:42.030Z,17.26
2018-08-12T02:15:11.792Z,17.23
2018-08-12T02:17:41.025Z,17.12
2018-08-12T02:20:10.801Z,17.07
2018-08-12T02:22:40.839Z,17.07
2018-08-12T02:25:11.037Z,17.06
2018-08-12T02:27:39.930Z,17.11
2018-08-12T02:30:10.805Z,17.11
2018-08-12T02:32:40.006Z,17.13
2018-08-12T02:35:09.285Z,17.11
2018-08-12T02:37:38.080Z,16.97
2018-08-12T02:40:08.862Z,16.97
2018-08-12T02:42:38.092Z,16.96
2018-08-12T02:45:09.425Z,16.96
2018-08-12T02:47:38.722Z,16.94
2018-08-12T02:50:07.975Z,16.93
2018-08-12T02:52:37.392Z,16.86
2018-08-12T02:55:07.555Z,16.82
2018-08-12T02:57:36.449Z,16.79
2018-08-12T03:00:06.845Z,16.76
2018-08-12T03:02:35.554Z,16.75
2018-08-12T03:05:04.538Z,16.78
2018-08-12T03:07:33.675Z,16.86
2018-08-12T03:10:02.450Z,16.90
2018-08-12T03:12:31.519Z,16.89
2018-08-12T03:15:00.247Z,16.88
2018-08-12T03:17:29.055Z,16.87
2018-08-12T03:19:57.929Z,16.90
2018-08-12T03:22:27.180Z,16.90
2018-08-12T03:24:56.459Z,16.97
2018-08-12T03:27:25.415Z,17.03
2018-08-12T03:29:54.239Z,17.04
2018-08-12T03:32:23.363Z,17.03
2018-08-12T03:34:52.491Z,17.03
2018-08-12T03:37:21.288Z,17.06
2018-08-12T03:39:50.170Z,17.13
2018-08-12T03:42:18.950Z,17.16
2018-08-12T03:44:47.705Z,17.17
2018-08-12T03:47:16.446Z,17.23
2018-08-12T03:49:45.227Z,17.23
2018-08-12T03:52:13.972Z,17.28
2018-08-12T03:54:42.743Z,17.33
2018-08-12T03:57:11.518Z,17.35
2018-08-12T03:59:40.307Z,17.36
2018-08-12T04:02:09.093Z,17.42
2018-08-12T04:04:37.872Z,17.48
2018-08-12T04:07:07.034Z,17.52
2018-08-12T04:09:35.826Z,17.52
2018-08-12T04:12:04.615Z,17.52
2018-08-12T04:14:33.429Z,17.52
2018-08-12T04:17:02.548Z,17.53
2018-08-12T04:19:32.139Z,17.59
2018-08-12T04:22:01.443Z,17.57
2018-08-12T04:24:30.274Z,17.57
2018-08-12T04:26:59.122Z,17.50
2018-08-12T04:29:27.907Z,17.59
2018-08-12T04:31:56.770Z,17.72
2018-08-12T04:34:25.555Z,17.85
2018-08-12T04:36:54.279Z,18.01
2018-08-12T04:39:23.068Z,18.23
2018-08-12T04:41:52.222Z,18.57
2018-08-12T04:44:20.994Z,19.09
2018-08-12T04:46:49.799Z,19.80
2018-08-12T04:49:18.663Z,20.47
2018-08-12T04:51:47.434Z,20.81
2018-08-12T04:54:16.190Z,21.08
2018-08-12T04:56:44.970Z,21.35
2018-08-12T04:59:13.735Z,21.78
2018-08-12T05:01:42.531Z,22.45
2018-08-12T05:04:11.339Z,22.94
2018-08-12T05:06:40.148Z,23.48
2018-08-12T05:09:10.570Z,23.53
2018-08-12T05:11:39.690Z,23.53
2018-08-12T05:14:08.555Z,23.29
2018-08-12T05:16:37.342Z,22.90
2018-08-12T05:19:06.159Z,22.75
2018-08-12T05:21:34.926Z,22.34
2018-08-12T05:24:03.770Z,22.10
2018-08-12T05:26:32.606Z,21.87
2018-08-12T05:29:01.735Z,21.81
2018-08-12T05:31:30.983Z,21.67
2018-08-12T05:33:59.754Z,21.62
2018-08-12T05:36:28.555Z,21.82
2018-08-12T05:38:57.351Z,21.98
2018-08-12T05:41:26.129Z,21.90
2018-08-12T05:43:55.119Z,21.68
2018-08-12T05:46:24.660Z,21.73
2018-08-12T05:48:53.552Z,21.57
2018-08-12T05:51:22.307Z,21.56
2018-08-12T05:53:51.243Z,21.49
2018-08-12T05:56:20.068Z,21.56
2018-08-12T05:58:49.273Z,21.62
2018-08-12T06:01:18.117Z,21.69
2018-08-12T06:03:46.896Z,21.80
2018-08-12T06:06:16.038Z,21.85
2018-08-12T06:08:44.851Z,21.89
2018-08-12T06:11:13.807Z,21.81
2018-08-12T06:13:42.575Z,21.73
2018-08-12T06:16:11.505Z,21.74
2018-08-12T06:18:40.635Z,21.76
2018-08-12T06:21:09.463Z,21.75
2018-08-12T06:23:38.222Z,21.90
2018-08-12T06:26:07.837Z,21.81
2018-08-12T06:28:36.738Z,21.63
2018-08-12T06:31:05.618Z,21.70
2018-08-12T06:33:34.443Z,21.58
2018-08-12T06:36:03.293Z,21.73
2018-08-12T06:38:32.075Z,21.68
2018-08-12T06:41:00.830Z,21.77
2018-08-12T06:43:29.667Z,22.06
2018-08-12T06:45:58.478Z,22.25
2018-08-12T06:48:27.310Z,22.23
2018-08-12T06:50:56.207Z,22.21
2018-08-12T06:53:24.966Z,22.10
2018-08-12T06:55:54.076Z,22.04
2018-08-12T06:58:22.880Z,22.14
2018-08-12T07:00:51.855Z,22.30
2018-08-12T07:03:20.632Z,22.44
2018-08-12T07:05:49.407Z,22.51
2018-08-12T07:08:18.283Z,22.65
2018-08-12T07:10:47.204Z,22.72
2018-08-12T07:13:16.317Z,22.85
2018-08-12T07:15:45.529Z,23.03
2018-08-12T07:18:14.422Z,23.11
2018-08-12T07:20:43.323Z,23.32
2018-08-12T07:23:12.184Z,23.53
2018-08-12T07:25:41.379Z,23.53
2018-08-12T07:28:10.204Z,23.68
2018-08-12T07:30:39.034Z,23.74
2018-08-12T07:33:07.841Z,23.88
2018-08-12T07:35:36.646Z,23.96
2018-08-12T07:38:05.446Z,23.96
2018-08-12T07:40:34.282Z,24.03
2018-08-12T07:43:03.047Z,24.19
2018-08-12T07:45:32.120Z,24.06
2018-08-12T07:48:00.857Z,24.14
2018-08-12T07:50:29.990Z,24.11
2018-08-12T07:52:58.725Z,24.44
2018-08-12T07:55:27.557Z,24.45
2018-08-12T07:57:57.328Z,24.39
2018-08-12T08:00:26.821Z,24.53
2018-08-12T08:02:55.681Z,24.35
2018-08-12T08:05:25.144Z,24.49
2018-08-12T08:07:54.443Z,24.51
2018-08-12T08:10:23.247Z,24.43
2018-08-12T08:12:52.109Z,24.48
2018-08-12T08:15:21.751Z,24.57
2018-08-12T08:17:50.766Z,24.62
2018-08-12T08:20:19.544Z,24.67
2018-08-12T08:22:48.656Z,24.80
2018-08-12T08:25:17.413Z,24.76
2018-08-12T08:27:46.320Z,24.97
2018-08-12T08:30:16.340Z,24.81
2018-08-12T08:32:45.299Z,24.69
2018-08-12T08:35:14.603Z,24.70
2018-08-12T08:37:43.997Z,24.65
2018-08-12T08:40:14.230Z,24.70
2018-08-12T08:42:43.090Z,24.72
2018-08-12T08:45:15.739Z,24.62
2018-08-12T08:47:46.105Z,24.65
2018-08-12T08:50:15.239Z,24.76
2018-08-12T08:52:44.448Z,24.82
2018-08-12T08:55:14.210Z,24.75
2018-08-12T08:57:43.560Z,24.72
2018-08-12T09:00:15.271Z,24.69
2018-08-12T09:02:46.868Z,24.69
2018-08-12T09:05:16.265Z,24.71
2018-08-12T09:07:45.527Z,24.76
2018-08-12T09:10:16.010Z,24.82
2018-08-12T09:12:44.955Z,24.79
2018-08-12T09:15:15.799Z,24.76
2018-08-12T09:17:45.433Z,24.69
2018-08-12T09:20:15.973Z,24.72
2018-08-12T09:22:44.882Z,24.70
2018-08-12T09:25:14.182Z,24.67
2018-08-12T09:27:42.934Z,24.83
2018-08-12T09:30:14.033Z,24.84
2018-08-12T09:32:43.393Z,24.80
2018-08-12T09:35:12.231Z,24.82
2018-08-12T09:37:41.099Z,24.79
2018-08-12T09:40:12.269Z,24.85
2018-08-12T09:42:41.921Z,24.90
2018-08-12T09:45:13.151Z,24.96
2018-08-12T09:47:42.045Z,25.11
2018-08-12T09:50:11.738Z,25.15
2018-08-12T09:52:40.746Z,25.01
2018-08-12T09:55:10.661Z,25.07
2018-08-12T09:57:39.446Z,25.14
2018-08-12T10:00:11.825Z,25.09
2018-08-12T10:02:40.731Z,25.16
2018-08-12T10:05:09.879Z,25.30
2018-08-12T10:07:38.671Z,25.29
2018-08-12T10:10:07.543Z,25.22
2018-08-12T10:12:36.691Z,25.31
2018-08-12T10:15:06.331Z,25.49
2018-08-12T10:17:35.468Z,25.56
2018-08-12T10:20:04.839Z,25.63
2018-08-12T10:22:33.678Z,25.72
2018-08-12T10:25:02.480Z,25.84
2018-08-12T10:27:31.223Z,26.01
2018-08-12T10:29:59.999Z,26.15
2018-08-12T10:32:28.854Z,26.04
2018-08-12T10:34:57.594Z,26.00
2018-08-12T10:37:26.768Z,25.83
2018-08-12T10:39:55.960Z,25.76
2018-08-12T10:42:24.752Z,25.68
2018-08-12T10:44:53.512Z,25.68
2018-08-12T10:47:22.266Z,25.80
2018-08-12T10:49:51.498Z,25.80
2018-08-12T10:52:20.378Z,25.79
2018-08-12T10:54:49.226Z,25.83
2018-08-12T10:57:18.159Z,25.93
2018-08-12T10:59:47.372Z,25.98
2018-08-12T11:02:17.091Z,26.10
2018-08-12T11:04:46.031Z,26.05
2018-08-12T11:07:14.864Z,26.18
2018-08-12T11:09:43.736Z,26.20
2018-08-12T11:12:12.555Z,26.17
2018-08-12T11:14:41.671Z,26.21
2018-08-12T11:17:10.885Z,25.91
2018-08-12T11:19:39.730Z,25.84
2018-08-12T11:22:10.569Z,25.84
2018-08-12T11:24:39.366Z,25.76
2018-08-12T11:27:08.284Z,25.75
2018-08-12T11:29:37.127Z,25.89
2018-08-12T11:32:06.440Z,26.06
2018-08-12T11:34:35.304Z,26.04
2018-08-12T11:37:04.143Z,26.08
2018-08-12T11:39:32.999Z,26.15
2018-08-12T11:42:01.862Z,26.25
2018-08-12T11:44:30.721Z,26.36
2018-08-12T11:46:59.501Z,26.34
2018-08-12T11:49:28.307Z,26.25
2018-08-12T11:51:57.123Z,26.28
2018-08-12T11:54:25.927Z,26.26
2018-08-12T11:56:54.835Z,26.19
2018-08-12T11:59:24.110Z,26.18
2018-08-12T12:01:52.931Z,25.96
2018-08-12T12:04:21.758Z,25.87
2018-08-12T12:06:51.082Z,25.80
2018-08-12T12:09:19.864Z,25.86
2018-08-12T12:11:48.717Z,26.01
2018-08-12T12:14:17.509Z,26.25
2018-08-12T12:16:46.416Z,26.52
2018-08-12T12:19:15.814Z,26.64
2018-08-12T12:21:44.647Z,26.71
2018-08-12T12:24:13.983Z,26.80
2018-08-12T12:26:43.095Z,26.98
2018-08-12T12:29:11.886Z,26.94
2018-08-12T12:31:40.659Z,26.94
2018-08-12T12:34:09.671Z,26.80
2018-08-12T12:36:38.877Z,26.80
2018-08-12T12:39:09.597Z,26.86
2018-08-12T12:41:38.513Z,26.75
2018-08-12T12:44:07.802Z,26.51
2018-08-12T12:46:36.650Z,26.57
2018-08-12T12:49:05.589Z,26.64
2018-08-12T12:51:34.364Z,26.72
2018-08-12T12:54:03.234Z,26.49
2018-08-12T12:56:32.044Z,26.43
2018-08-12T12:59:00.902Z,26.32
2018-08-12T13:01:29.640Z,26.48
2018-08-12T13:03:58.456Z,26.58
2018-08-12T13:06:27.691Z,26.62
2018-08-12T13:08:56.522Z,26.70
2018-08-12T13:11:25.463Z,26.75
2018-08-12T13:13:54.255Z,26.82
2018-08-12T13:16:23.351Z,26.88
2018-08-12T13:18:52.134Z,26.88
2018-08-12T13:21:21.007Z,26.96
2018-08-12T13:23:49.827Z,26.89
2018-08-12T13:26:19.010Z,26.90
2018-08-12T13:28:47.841Z,26.88
2018-08-12T13:31:16.605Z,26.90
2018-08-12T13:33:45.350Z,26.89
2018-08-12T13:36:14.170Z,27.00
2018-08-12T13:38:42.973Z,27.06
2018-08-12T13:41:11.824Z,27.23
2018-08-12T13:43:40.814Z,27.26
2018-08-12T13:46:09.640Z,27.11
2018-08-12T13:48:38.526Z,27.10
2018-08-12T13:51:07.330Z,27.24
2018-08-12T13:53:36.042Z,27.22
2018-08-12T13:56:04.879Z,27.26
2018-08-12T13:58:33.681Z,27.31
2018-08-12T14:01:02.494Z,27.29
2018-08-12T14:03:31.366Z,27.31
2018-08-12T14:06:00.159Z,27.28
2018-08-12T14:08:28.968Z,27.19
2018-08-12T14:10:57.820Z,27.09
2018-08-12T14:13:26.586Z,27.10
2018-08-12T14:15:55.439Z,27.10
2018-08-12T14:18:24.230Z,27.07
2018-08-12T14:20:53.141Z,27.06
2018-08-12T14:23:22.102Z,26.91
2018-08-12T14:25:50.858Z,26.69
2018-08-12T14:28:19.637Z,26.79
2018-08-12T14:30:48.482Z,26.86
2018-08-12T14:33:17.313Z,26.95
2018-08-12T14:35:46.115Z,27.09
2018-08-12T14:38:14.946Z,27.04
2018-08-12T14:40:43.711Z,27.06
2018-08-12T14:43:12.480Z,27.00
2018-08-12T14:45:41.387Z,27.00
2018-08-12T14:48:10.143Z,26.99
2018-08-12T14:50:38.842Z,26.91
2018-08-12T14:53:07.922Z,26.95
2018-08-12T14:55:36.762Z,26.93
2018-08-12T14:58:05.862Z,26.96
2018-08-12T15:00:34.638Z,26.80
2018-08-12T15:03:03.499Z,26.85
2018-08-12T15:05:32.246Z,26.80
2018-08-12T15:08:01.502Z,26.80
2018-08-12T15:10:30.305Z,26.76
2018-08-12T15:12:59.480Z,26.84
2018-08-12T15:15:28.239Z,26.84
2018-08-12T15:17:57.206Z,26.86
2018-08-12T15:20:26.462Z,26.88
2018-08-12T15:22:55.296Z,26.93
2018-08-12T15:25:24.201Z,26.85
2018-08-12T15:27:53.305Z,26.86
2018-08-12T15:30:22.091Z,26.85
2018-08-12T15:32:50.910Z,26.87
2018-08-12T15:35:19.703Z,26.92
2018-08-12T15:37:48.886Z,26.92
2018-08-12T15:40:17.761Z,26.84
2018-08-12T15:42:46.575Z,26.87
2018-08-12T15:45:16.731Z,26.68
2018-08-12T15:47:46.096Z,26.63
2018-08-12T15:50:15.408Z,26.59
2018-08-12T15:52:45.516Z,26.53
2018-08-12T15:55:14.967Z,26.54
2018-08-12T15:57:43.826Z,26.57
2018-08-12T16:00:16.838Z,26.50
2018-08-12T16:02:46.241Z,26.58
2018-08-12T16:05:15.075Z,26.58
2018-08-12T16:07:44.646Z,26.52
2018-08-12T16:10:17.060Z,26.30
2018-08-12T16:12:47.198Z,26.27
2018-08-12T16:15:16.115Z,26.21
2018-08-12T16:17:45.006Z,26.23
2018-08-12T16:20:13.994Z,26.21
2018-08-12T16:22:43.329Z,26.11
2018-08-12T16:25:14.667Z,26.09
2018-08-12T16:27:44.096Z,26.03
2018-08-12T16:30:15.757Z,26.00
2018-08-12T16:32:44.620Z,26.00
2018-08-12T16:35:15.667Z,25.96
2018-08-12T16:37:45.152Z,25.90
2018-08-12T16:40:17.645Z,25.87
2018-08-12T16:42:47.270Z,25.74
2018-08-12T16:45:16.757Z,25.72
2018-08-12T16:47:46.069Z,25.62
2018-08-12T16:50:15.009Z,25.58
2018-08-12T16:52:44.438Z,25.60
2018-08-12T16:55:14.810Z,25.62
2018-08-12T16:57:44.692Z,25.59
2018-08-12T17:00:21.912Z,25.49
2018-08-12T17:02:50.782Z,25.46
2018-08-12T17:05:20.987Z,25.39
2018-08-12T17:07:50.023Z,25.29
2018-08-12T17:10:19.610Z,25.19
2018-08-12T17:12:48.522Z,25.18
2018-08-12T17:15:19.106Z,25.14
2018-08-12T17:17:48.456Z,25.02
2018-08-12T17:20:18.729Z,24.99
2018-08-12T17:22:47.942Z,24.92
2018-08-12T17:25:17.223Z,24.89
2018-08-12T17:27:46.237Z,24.82
2018-08-12T17:30:16.056Z,24.78
2018-08-12T17:32:44.859Z,24.71
2018-08-12T17:35:13.995Z,24.63
2018-08-12T17:37:44.461Z,24.54
2018-08-12T17:40:14.379Z,24.49
2018-08-12T17:42:43.198Z,24.44
2018-08-12T17:45:13.581Z,24.37
2018-08-12T17:47:42.891Z,24.34
2018-08-12T17:50:13.227Z,24.29
2018-08-12T17:52:42.819Z,24.20
2018-08-12T17:55:11.579Z,24.13
2018-08-12T17:57:40.530Z,24.04
2018-08-12T18:00:12.944Z,23.99
2018-08-12T18:02:41.697Z,24.01
2018-08-12T18:05:12.988Z,23.95
2018-08-12T18:07:42.195Z,23.89
2018-08-12T18:10:11.047Z,23.79
2018-08-12T18:12:39.830Z,23.76
2018-08-12T18:15:10.069Z,23.72
2018-08-12T18:17:39.125Z,23.70
2018-08-12T18:20:08.218Z,23.65
2018-08-12T18:22:37.721Z,23.67
2018-08-12T18:25:07.859Z,23.65
2018-08-12T18:27:36.939Z,23.60
2018-08-12T18:30:08.669Z,23.60
2018-08-12T18:32:37.487Z,23.56
2018-08-12T18:35:07.491Z,23.56
2018-08-12T18:37:36.700Z,23.52
2018-08-12T18:40:06.629Z,23.48
2018-08-12T18:42:35.612Z,23.51
2018-08-12T18:45:04.750Z,23.45
2018-08-12T18:47:33.613Z,23.40
2018-08-12T18:50:02.709Z,23.40
2018-08-12T18:52:31.563Z,23.38
2018-08-12T18:55:00.308Z,23.37
2018-08-12T18:57:29.161Z,23.31
2018-08-12T18:59:58.037Z,23.18
2018-08-12T19:02:26.854Z,23.08
2018-08-12T19:04:56.451Z,23.00
2018-08-12T19:07:25.334Z,22.94
2018-08-12T19:09:54.122Z,22.89
2018-08-12T19:12:23.062Z,22.84
2018-08-12T19:14:51.927Z,22.84
2018-08-12T19:17:20.798Z,22.82
2018-08-12T19:19:49.983Z,22.67
2018-08-12T19:22:19.265Z,22.58
2018-08-12T19:24:48.072Z,22.57
2018-08-12T19:27:16.818Z,22.51
2018-08-12T19:29:45.643Z,22.48
2018-08-12T19:32:14.387Z,22.45
2018-08-12T19:34:43.183Z,22.46
2018-08-12T19:37:12.578Z,22.39
2018-08-12T19:39:41.327Z,22.37
2018-08-12T19:42:10.227Z,22.30
2018-08-12T19:44:39.042Z,22.31
2018-08-12T19:47:07.975Z,22.29
2018-08-12T19:49:36.770Z,22.24
2018-08-12T19:52:05.564Z,22.18
2018-08-12T19:54:34.774Z,22.14
2018-08-12T19:57:03.787Z,22.13
2018-08-12T19:59:32.546Z,22.18
2018-08-12T20:02:01.480Z,22.14
2018-08-12T20:04:30.238Z,22.16
2018-08-12T20:06:59.026Z,22.18
2018-08-12T20:09:27.831Z,22.19
2018-08-12T20:11:56.787Z,22.14
2018-08-12T20:14:25.721Z,22.10
2018-08-12T20:16:54.611Z,22.09
2018-08-12T20:19:23.390Z,22.10
2018-08-12T20:21:52.223Z,22.11
2018-08-12T20:24:21.004Z,22.11
2018-08-12T20:26:50.230Z,22.12
2018-08-12T20:29:19.090Z,22.10
2018-08-12T20:31:47.874Z,22.07
2018-08-12T20:34:17.023Z,22.04
2018-08-12T20:36:45.801Z,22.03
2018-08-12T20:39:14.886Z,22.03
2018-08-12T20:41:44.366Z,22.00
2018-08-12T20:44:13.163Z,21.96
2018-08-12T20:46:41.933Z,21.88
2018-08-12T20:49:10.698Z,21.83
2018-08-12T20:51:40.219Z,21.79
2018-08-12T20:54:09.076Z,21.76
2018-08-12T20:56:37.868Z,21.71
2018-08-12T20:59:06.674Z,21.64
2018-08-12T21:01:35.442Z,21.59
2018-08-12T21:04:04.237Z,21.54
2018-08-12T21:06:33.403Z,21.55
2018-08-12T21:09:02.194Z,21.47
2018-08-12T21:11:30.928Z,21.41
2018-08-12T21:13:59.721Z,21.33
2018-08-12T21:16:28.526Z,21.32
2018-08-12T21:18:57.531Z,21.32
2018-08-12T21:21:26.540Z,21.35
2018-08-12T21:23:55.695Z,21.32
2018-08-12T21:26:24.562Z,21.29
2018-08-12T21:28:53.818Z,21.25
2018-08-12T21:31:22.993Z,21.15
2018-08-12T21:33:51.787Z,21.11
2018-08-12T21:36:20.618Z,21.08
2018-08-12T21:38:49.367Z,21.04
2018-08-12T21:41:18.157Z,21.00
2018-08-12T21:43:46.929Z,20.93
2018-08-12T21:46:15.722Z,20.84
2018-08-12T21:48:44.869Z,20.78
2018-08-12T21:51:13.621Z,20.79
2018-08-12T21:53:42.491Z,20.81
2018-08-12T21:56:11.603Z,20.84
2018-08-12T21:58:40.375Z,20.82
2018-08-12T22:01:09.151Z,20.75
2018-08-12T22:03:38.353Z,20.72
2018-08-12T22:06:07.256Z,20.68
2018-08-12T22:08:36.568Z,20.67
2018-08-12T22:11:05.407Z,20.68
2018-08-12T22:13:34.181Z,20.61
2018-08-12T22:16:03.135Z,20.56
2018-08-12T22:18:31.984Z,20.53
2018-08-12T22:21:00.759Z,20.48
2018-08-12T22:23:29.556Z,20.47
2018-08-12T22:25:58.351Z,20.42
2018-08-12T22:28:27.092Z,20.32
2018-08-12T22:30:55.943Z,20.22
2018-08-12T22:33:24.961Z,20.23
2018-08-12T22:35:53.761Z,20.19
2018-08-12T22:38:22.607Z,20.12
2018-08-12T22:40:51.415Z,20.09
2018-08-12T22:43:20.213Z,20.01
2018-08-12T22:45:48.970Z,20.03
2018-08-12T22:48:17.799Z,20.03
2018-08-12T22:50:46.536Z,19.99
2018-08-12T22:53:15.366Z,19.95
2018-08-12T22:55:44.142Z,19.93
2018-08-12T22:58:13.274Z,19.87
2018-08-12T23:00:43.352Z,19.89
2018-08-12T23:03:12.556Z,19.87
2018-08-12T23:05:42.229Z,19.88
2018-08-12T23:08:11.789Z,19.85
2018-08-12T23:10:41.284Z,19.81
2018-08-12T23:13:10.128Z,19.79
2018-08-12T23:16:24.995Z,19.74
2018-08-12T23:18:55.082Z,19.66
2018-08-12T23:21:23.973Z,19.63
2018-08-12T23:23:53.454Z,19.60
2018-08-12T23:26:23.788Z,19.60
2018-08-12T23:28:52.631Z,19.57
2018-08-12T23:31:21.432Z,19.57
2018-08-12T23:33:50.176Z,19.51
2018-08-12T23:36:19.049Z,19.50
2018-08-12T23:38:47.799Z,19.50
2018-08-12T23:41:16.595Z,19.48
2018-08-12T23:43:45.372Z,19.47
2018-08-12T23:46:14.223Z,19.43
2018-08-12T23:48:42.988Z,19.39
2018-08-12T23:51:11.696Z,19.36
2018-08-12T23:53:40.467Z,19.29
2018-08-12T23:56:09.348Z,19.28
2018-08-12T23:58:38.158Z,19.28
